This is the latest recevied weather packets stored in our database for station/object OK1KKY-18. If no packets are shown the sender has not sent any weather packets the latest 10 day(s).
| Time | Temp. | Humidity | Pressure | Rain* | Wind** | Luminosity | Snow |
|---|---|---|---|---|---|---|---|
| 1777666101 | 8.89° C | 60% | 1027.5 hPa | - | - | - | - |
| 1777665501 | 8.89° C | 61% | 1027.5 hPa | - | - | - | - |
| 1777664901 | 8.89° C | 59% | 1027.5 hPa | - | - | - | - |
| 1777664301 | 8.89° C | 58% | 1027.4 hPa | - | - | - | - |
| 1777663701 | 9.44° C | 58% | 1027.4 hPa | - | - | - | - |
| 1777663101 | 9.44° C | 58% | 1027.4 hPa | - | - | - | - |
| 1777662503 | 10° C | 56% | 1027.3 hPa | - | - | - | - |
| 1777661905 | 10° C | 56% | 1027.1 hPa | - | - | - | - |
| 1777661301 | 10° C | 55% | 1027.1 hPa | - | - | - | - |
| 1777660700 | 10.56° C | 55% | 1027.1 hPa | - | - | - | - |
| 1777660101 | 10.56° C | 53% | 1027 hPa | - | - | - | - |
| 1777659500 | 11.11° C | 52% | 1026.8 hPa | - | - | - | - |
| 1777658900 | 11.67° C | 51% | 1026.8 hPa | - | - | - | - |
| 1777658300 | 11.67° C | 51% | 1026.5 hPa | - | - | - | - |
| 1777657701 | 12.78° C | 47% | 1026.5 hPa | - | - | - | - |
| 1777657101 | 12.78° C | 46% | 1026.5 hPa | - | - | - | - |
| 1777656501 | 13.89° C | 43% | 1026.5 hPa | - | - | - | - |
| 1777655901 | 15° C | 39% | 1026.3 hPa | - | - | - | - |
| 1777655300 | 15.56° C | 37% | 1026.3 hPa | - | - | - | - |
| 1777654700 | 16.11° C | 34% | 1026.3 hPa | - | - | - | - |
| 1777654101 | 16.11° C | 34% | 1026.3 hPa | - | - | - | - |
| 1777653500 | 16.67° C | 31% | 1026.3 hPa | - | - | - | - |
| 1777652900 | 16.67° C | 32% | 1026.3 hPa | - | - | - | - |
| 1777652302 | 17.22° C | 31% | 1026.4 hPa | - | - | - | - |
| 1777651702 | 17.22° C | 31% | 1026.5 hPa | - | - | - | - |
* Rain since midnight (hover to see other rain measurements)
** Current wind speed in m/s (hover to see current wind gust speed)